createdAt,value
2017-09-14T00:00:26.268Z,84.20
2017-09-14T00:02:54.061Z,83.70
2017-09-14T00:05:21.917Z,83.40
2017-09-14T00:07:49.684Z,82.90
2017-09-14T00:10:17.564Z,82.50
2017-09-14T00:12:45.431Z,82.20
2017-09-14T00:15:13.218Z,81.90
2017-09-14T00:17:41.784Z,83.50
2017-09-14T00:20:09.629Z,82.80
2017-09-14T00:22:37.595Z,82.90
2017-09-14T00:25:05.568Z,83.30
2017-09-14T00:27:33.637Z,82.90
2017-09-14T00:30:01.520Z,83.50
2017-09-14T00:32:29.370Z,83.80
2017-09-14T00:34:57.159Z,84.80
2017-09-14T00:37:24.958Z,84.80
2017-09-14T00:39:52.786Z,86.10
2017-09-14T00:42:20.744Z,85.10
2017-09-14T00:44:48.602Z,84.80
2017-09-14T00:47:16.381Z,85.20
2017-09-14T00:49:44.250Z,86.20
2017-09-14T00:52:12.798Z,86.30
2017-09-14T00:54:40.560Z,86.60
2017-09-14T00:57:08.443Z,87.00
2017-09-14T00:59:36.335Z,88.10
2017-09-14T01:02:05.226Z,88.20
2017-09-14T01:04:35.255Z,88.20
2017-09-14T01:07:04.639Z,88.20
2017-09-14T01:09:32.439Z,88.30
2017-09-14T01:12:01.042Z,88.10
2017-09-14T01:14:28.853Z,88.10
2017-09-14T01:16:56.599Z,88.00
2017-09-14T01:19:24.460Z,88.20
2017-09-14T01:21:52.312Z,88.70
2017-09-14T01:24:20.214Z,89.10
2017-09-14T01:26:48.998Z,89.10
2017-09-14T01:29:17.682Z,90.00
2017-09-14T01:31:45.552Z,90.00
2017-09-14T01:34:13.624Z,89.20
2017-09-14T01:36:42.339Z,88.90
2017-09-14T01:39:10.211Z,88.70
2017-09-14T01:41:39.049Z,85.70
2017-09-14T01:44:07.737Z,85.70
2017-09-14T01:46:35.524Z,85.00
2017-09-14T01:49:03.320Z,83.80
2017-09-14T01:51:31.971Z,83.60
2017-09-14T01:53:59.758Z,83.50
2017-09-14T01:56:28.314Z,84.90
2017-09-14T01:58:56.219Z,85.00
2017-09-14T02:01:24.879Z,86.90
2017-09-14T02:03:52.632Z,86.90
2017-09-14T02:06:20.370Z,87.30
2017-09-14T02:08:48.245Z,88.30
2017-09-14T02:11:15.993Z,88.60
2017-09-14T02:13:43.786Z,88.10
2017-09-14T02:16:11.695Z,88.30
2017-09-14T02:18:40.319Z,86.50
2017-09-14T02:21:08.126Z,86.50
2017-09-14T02:23:36.079Z,85.20
2017-09-14T02:26:03.835Z,83.80
2017-09-14T02:28:31.635Z,85.10
2017-09-14T02:31:00.131Z,86.40
2017-09-14T02:33:27.946Z,86.40
2017-09-14T02:35:55.729Z,86.60
2017-09-14T02:38:23.683Z,87.20
2017-09-14T02:40:51.442Z,86.90
2017-09-14T02:43:19.320Z,86.80
2017-09-14T02:45:47.254Z,86.90
2017-09-14T02:48:15.044Z,87.10
2017-09-14T02:50:42.814Z,86.80
2017-09-14T02:53:10.645Z,86.30
2017-09-14T02:55:38.424Z,87.00
2017-09-14T02:58:06.208Z,87.10
2017-09-14T03:00:34.256Z,87.10
2017-09-14T03:03:02.011Z,87.10
2017-09-14T03:05:29.892Z,87.60
2017-09-14T03:07:57.872Z,87.20
2017-09-14T03:10:25.726Z,87.10
2017-09-14T03:12:53.503Z,87.80
2017-09-14T03:15:21.266Z,87.70
2017-09-14T03:17:49.222Z,88.60
2017-09-14T03:20:17.184Z,88.80
2017-09-14T03:22:44.966Z,88.80
2017-09-14T03:25:12.730Z,88.30
2017-09-14T03:27:40.448Z,88.80
2017-09-14T03:30:08.765Z,89.00
2017-09-14T03:32:36.646Z,88.50
2017-09-14T03:35:04.433Z,89.00
2017-09-14T03:37:33.075Z,88.80
2017-09-14T03:40:01.039Z,88.90
2017-09-14T03:42:28.766Z,88.30
2017-09-14T03:44:57.267Z,87.60
2017-09-14T03:47:24.994Z,87.60
2017-09-14T03:49:53.647Z,87.20
2017-09-14T03:52:21.411Z,87.20
2017-09-14T03:54:49.264Z,86.40
2017-09-14T03:57:17.147Z,86.40
2017-09-14T03:59:45.100Z,86.60
2017-09-14T04:02:12.867Z,86.40
2017-09-14T04:04:40.645Z,87.00
2017-09-14T04:07:08.391Z,87.80
2017-09-14T04:09:36.770Z,87.60
2017-09-14T04:12:04.567Z,87.30
2017-09-14T04:14:32.412Z,88.00
2017-09-14T04:17:00.175Z,88.50
2017-09-14T04:19:29.130Z,87.90
2017-09-14T04:21:56.943Z,88.70
2017-09-14T04:24:24.806Z,89.30
2017-09-14T04:26:52.653Z,89.00
2017-09-14T04:29:20.534Z,89.40
2017-09-14T04:31:48.406Z,89.30
2017-09-14T04:34:16.340Z,89.60
2017-09-14T04:36:44.422Z,90.20
2017-09-14T04:39:12.316Z,90.10
2017-09-14T04:41:40.174Z,90.10
2017-09-14T04:44:07.940Z,90.40
2017-09-14T04:46:35.703Z,90.20
2017-09-14T04:49:03.600Z,90.10
2017-09-14T04:51:32.257Z,89.30
2017-09-14T04:54:00.053Z,89.30
2017-09-14T04:56:28.615Z,86.80
2017-09-14T04:58:56.471Z,86.80
2017-09-14T05:01:24.283Z,87.10
2017-09-14T05:03:52.213Z,88.00
2017-09-14T05:06:20.154Z,88.00
2017-09-14T05:08:48.026Z,87.00
2017-09-14T05:11:15.827Z,86.80
2017-09-14T05:13:44.358Z,86.10
2017-09-14T05:16:12.439Z,86.10
2017-09-14T05:18:40.444Z,86.50
2017-09-14T05:21:08.802Z,87.00
2017-09-14T05:23:36.919Z,85.90
2017-09-14T05:26:05.770Z,85.40
2017-09-14T05:28:33.926Z,85.40
2017-09-14T05:31:04.345Z,85.80
2017-09-14T05:33:33.564Z,85.70
2017-09-14T05:36:01.496Z,86.60
2017-09-14T05:38:29.320Z,86.70
2017-09-14T05:40:57.952Z,86.50
2017-09-14T05:43:25.938Z,86.50
2017-09-14T05:45:53.933Z,86.50
2017-09-14T05:48:21.891Z,85.10
2017-09-14T05:50:49.651Z,81.90
2017-09-14T05:53:17.533Z,79.70
2017-09-14T05:55:46.105Z,75.20
2017-09-14T05:58:13.968Z,75.20
2017-09-14T06:00:41.829Z,74.40
2017-09-14T06:03:09.705Z,72.20
2017-09-14T06:05:37.675Z,72.40
2017-09-14T06:08:05.641Z,70.80
2017-09-14T06:10:33.472Z,70.50
2017-09-14T06:13:01.279Z,72.20
2017-09-14T06:15:29.136Z,74.30
2017-09-14T06:17:57.007Z,76.30
2017-09-14T06:20:25.087Z,77.10
2017-09-14T06:22:52.925Z,76.20
2017-09-14T06:25:20.790Z,75.00
2017-09-14T06:27:48.755Z,74.80
2017-09-14T06:30:16.553Z,75.30
2017-09-14T06:32:44.415Z,73.80
2017-09-14T06:35:12.191Z,72.40
2017-09-14T06:37:40.854Z,69.90
2017-09-14T06:40:08.726Z,69.40
2017-09-14T06:42:36.517Z,68.50
2017-09-14T06:45:05.069Z,68.10
2017-09-14T06:47:33.038Z,68.00
2017-09-14T06:50:00.921Z,66.50
2017-09-14T06:52:28.885Z,63.20
2017-09-14T06:54:57.033Z,62.90
2017-09-14T06:57:24.828Z,61.50
2017-09-14T06:59:52.674Z,63.00
2017-09-14T07:02:20.527Z,62.20
2017-09-14T07:04:48.407Z,62.50
2017-09-14T07:07:16.493Z,62.80
2017-09-14T07:09:44.255Z,62.50
2017-09-14T07:12:12.058Z,60.10
2017-09-14T07:14:39.915Z,60.10
2017-09-14T07:17:08.470Z,58.70
2017-09-14T07:19:36.329Z,58.80
2017-09-14T07:22:04.115Z,55.30
2017-09-14T07:24:32.670Z,54.00
2017-09-14T07:27:00.420Z,53.80
2017-09-14T07:29:28.236Z,54.30
2017-09-14T07:31:56.890Z,52.10
2017-09-14T07:34:24.749Z,52.20
2017-09-14T07:36:52.629Z,49.90
2017-09-14T07:39:21.907Z,52.20
2017-09-14T07:41:49.653Z,52.00
2017-09-14T07:44:17.553Z,53.40
2017-09-14T07:46:45.310Z,53.40
2017-09-14T07:49:14.057Z,54.50
2017-09-14T07:51:41.790Z,55.60
2017-09-14T07:54:10.358Z,62.60
2017-09-14T07:56:38.328Z,62.40
2017-09-14T07:59:06.112Z,61.20
2017-09-14T08:01:34.898Z,63.00
2017-09-14T08:04:03.562Z,60.90
2017-09-14T08:06:32.138Z,62.80
2017-09-14T08:08:59.919Z,62.80
2017-09-14T08:11:27.869Z,63.70
2017-09-14T08:13:55.664Z,65.00
2017-09-14T08:16:24.339Z,63.30
2017-09-14T08:18:52.272Z,63.30
2017-09-14T08:21:20.120Z,66.50
2017-09-14T08:23:47.921Z,66.40
2017-09-14T08:26:16.510Z,67.80
2017-09-14T08:28:44.471Z,69.30
2017-09-14T08:31:12.340Z,71.00
2017-09-14T08:33:40.264Z,69.60
2017-09-14T08:36:08.464Z,71.40
2017-09-14T08:38:36.438Z,74.00
2017-09-14T08:41:04.435Z,70.80
2017-09-14T08:43:32.303Z,75.30
2017-09-14T08:46:00.259Z,74.80
2017-09-14T08:48:28.123Z,75.90
2017-09-14T08:50:56.093Z,75.50
2017-09-14T08:53:23.878Z,76.30
2017-09-14T08:55:51.704Z,75.80
2017-09-14T08:58:19.582Z,77.10
2017-09-14T09:00:47.588Z,78.40
2017-09-14T09:03:16.225Z,81.20
2017-09-14T09:05:44.019Z,81.20
2017-09-14T09:08:12.583Z,83.30
2017-09-14T09:10:40.364Z,82.70
2017-09-14T09:13:08.226Z,83.60
2017-09-14T09:15:36.100Z,82.50
2017-09-14T09:18:04.045Z,84.30
2017-09-14T09:20:32.665Z,82.80
2017-09-14T09:23:01.332Z,86.00
2017-09-14T09:25:29.188Z,86.00
2017-09-14T09:27:57.172Z,86.20
2017-09-14T09:30:24.930Z,86.70
2017-09-14T09:32:52.772Z,87.40
2017-09-14T09:35:20.521Z,88.00
2017-09-14T09:37:48.408Z,86.40
2017-09-14T09:40:16.151Z,86.20
2017-09-14T09:42:43.945Z,88.70
2017-09-14T09:45:11.893Z,88.90
2017-09-14T09:47:39.977Z,88.60
2017-09-14T09:50:07.758Z,90.20
2017-09-14T09:52:35.620Z,90.70
2017-09-14T09:55:03.795Z,90.30
2017-09-14T09:57:31.662Z,89.60
2017-09-14T09:59:59.551Z,87.20
2017-09-14T10:02:28.206Z,85.70
2017-09-14T10:04:56.075Z,85.70
2017-09-14T10:07:23.851Z,85.00
2017-09-14T10:09:51.869Z,86.10
2017-09-14T10:12:19.781Z,81.30
2017-09-14T10:14:47.731Z,83.30
2017-09-14T10:17:15.920Z,80.80
2017-09-14T10:19:43.830Z,78.80
2017-09-14T10:22:12.557Z,80.70
2017-09-14T10:24:40.429Z,80.80
2017-09-14T10:27:08.306Z,79.20
2017-09-14T10:29:36.258Z,81.70
2017-09-14T10:32:04.358Z,81.40
2017-09-14T10:34:32.375Z,83.40
2017-09-14T10:37:00.282Z,83.30
2017-09-14T10:39:28.238Z,84.60
2017-09-14T10:41:56.102Z,85.00
2017-09-14T10:44:24.075Z,85.60
2017-09-14T10:46:51.836Z,86.40
2017-09-14T10:49:19.737Z,86.70
2017-09-14T10:51:47.590Z,87.80
2017-09-14T10:54:15.436Z,88.40
2017-09-14T10:56:43.173Z,87.20
2017-09-14T10:59:11.064Z,88.70
2017-09-14T11:01:38.955Z,87.90
2017-09-14T11:04:07.214Z,88.60
2017-09-14T11:06:35.178Z,88.80
2017-09-14T11:09:03.024Z,89.10
2017-09-14T11:11:30.797Z,90.20
2017-09-14T11:13:59.208Z,87.90
2017-09-14T11:16:26.977Z,88.50
2017-09-14T11:18:54.928Z,86.70
2017-09-14T11:21:22.911Z,82.30
2017-09-14T11:23:50.706Z,84.60
2017-09-14T11:26:19.444Z,83.30
2017-09-14T11:28:47.546Z,83.30
2017-09-14T11:31:16.204Z,85.00
2017-09-14T11:33:43.979Z,84.90
2017-09-14T11:36:12.037Z,84.10
2017-09-14T11:38:39.900Z,84.20
2017-09-14T11:41:07.707Z,83.90
2017-09-14T11:43:36.378Z,83.60
2017-09-14T11:46:04.520Z,83.60
2017-09-14T11:48:32.298Z,84.70
2017-09-14T11:51:00.168Z,86.10
2017-09-14T11:53:27.886Z,84.00
2017-09-14T11:55:56.034Z,84.30
2017-09-14T11:58:27.860Z,86.60
2017-09-14T12:00:59.351Z,85.00
2017-09-14T12:03:34.965Z,87.00
2017-09-14T12:06:12.026Z,87.70
2017-09-14T12:08:42.764Z,87.70
2017-09-14T12:11:13.961Z,86.00
2017-09-14T12:13:43.544Z,85.90
2017-09-14T12:16:12.791Z,85.90
2017-09-14T12:18:49.958Z,87.30
2017-09-14T12:21:20.341Z,87.30
2017-09-14T12:23:49.635Z,88.00
2017-09-14T12:26:19.383Z,87.70
2017-09-14T12:28:48.246Z,89.00
2017-09-14T12:31:16.085Z,88.30
2017-09-14T12:33:43.968Z,87.10
2017-09-14T12:36:11.834Z,88.60
2017-09-14T12:38:39.556Z,88.60
2017-09-14T12:41:07.462Z,89.30
2017-09-14T12:43:35.183Z,89.30
2017-09-14T12:46:02.986Z,89.80
2017-09-14T12:48:30.760Z,89.60
2017-09-14T12:50:58.504Z,90.60
2017-09-14T12:53:26.284Z,90.40
2017-09-14T12:55:54.133Z,90.40
2017-09-14T12:58:21.915Z,91.40
2017-09-14T13:00:49.804Z,89.00
2017-09-14T13:03:18.307Z,86.60
2017-09-14T13:05:46.119Z,86.70
2017-09-14T13:08:13.846Z,87.30
2017-09-14T13:10:41.649Z,88.80
2017-09-14T13:13:09.420Z,87.80
2017-09-14T13:15:37.226Z,87.90
2017-09-14T13:18:05.764Z,88.30
2017-09-14T13:20:33.640Z,88.30
2017-09-14T13:23:01.426Z,88.90
2017-09-14T13:25:29.978Z,87.30
2017-09-14T13:27:57.941Z,87.30
2017-09-14T13:30:25.813Z,87.90
2017-09-14T13:32:54.589Z,86.70
2017-09-14T13:35:22.466Z,86.70
2017-09-14T13:37:50.240Z,86.10
2017-09-14T13:40:18.202Z,83.90
2017-09-14T13:42:46.372Z,84.60
2017-09-14T13:45:15.345Z,82.90
2017-09-14T13:47:43.196Z,82.40
2017-09-14T13:50:10.967Z,82.40
2017-09-14T13:52:38.863Z,84.60
2017-09-14T13:55:06.717Z,85.10
2017-09-14T13:57:34.686Z,83.60
2017-09-14T14:00:02.464Z,82.40
2017-09-14T14:02:30.239Z,83.60
2017-09-14T14:04:58.083Z,83.30
2017-09-14T14:07:25.965Z,81.60
2017-09-14T14:09:53.929Z,79.60
2017-09-14T14:12:22.169Z,80.40
2017-09-14T14:14:50.066Z,78.00
2017-09-14T14:17:17.926Z,81.90
2017-09-14T14:19:45.810Z,78.60
2017-09-14T14:22:13.608Z,81.70
2017-09-14T14:24:42.552Z,80.30
2017-09-14T14:27:10.516Z,80.30
2017-09-14T14:29:38.385Z,78.70
2017-09-14T14:32:06.276Z,79.90
2017-09-14T14:34:34.224Z,78.10
2017-09-14T14:37:02.006Z,82.70
2017-09-14T14:39:29.779Z,84.90
2017-09-14T14:41:57.621Z,82.00
2017-09-14T14:44:25.597Z,74.30
2017-09-14T14:46:53.443Z,81.00
2017-09-14T14:49:21.311Z,78.80
2017-09-14T14:51:49.181Z,80.50
2017-09-14T14:54:17.066Z,80.70
2017-09-14T14:56:44.787Z,81.60
2017-09-14T14:59:12.691Z,79.90
2017-09-14T15:01:40.466Z,80.80
2017-09-14T15:04:08.336Z,80.80
2017-09-14T15:06:37.217Z,79.40
2017-09-14T15:09:05.021Z,80.30
2017-09-14T15:11:33.150Z,81.40
2017-09-14T15:14:01.014Z,78.80
2017-09-14T15:16:28.782Z,77.40
2017-09-14T15:18:56.557Z,80.90
2017-09-14T15:21:24.529Z,80.40
2017-09-14T15:23:52.469Z,79.20
2017-09-14T15:26:20.266Z,80.80
2017-09-14T15:28:48.097Z,77.50
2017-09-14T15:31:15.995Z,78.50
2017-09-14T15:33:43.850Z,75.90
2017-09-14T15:36:11.702Z,74.00
2017-09-14T15:38:45.414Z,73.20
2017-09-14T15:41:32.223Z,72.10
2017-09-14T15:44:14.991Z,67.20
2017-09-14T15:46:42.809Z,66.00
2017-09-14T15:49:16.327Z,63.70
2017-09-14T15:51:49.812Z,58.60
2017-09-14T15:54:17.762Z,65.20
2017-09-14T15:56:45.727Z,62.30
2017-09-14T15:59:13.738Z,64.30
2017-09-14T16:01:42.309Z,63.30
2017-09-14T16:04:10.157Z,64.10
2017-09-14T16:06:38.130Z,66.10
2017-09-14T16:09:05.991Z,61.20
2017-09-14T16:11:34.176Z,60.80
2017-09-14T16:14:02.033Z,60.20
2017-09-14T16:16:29.864Z,58.20
2017-09-14T16:18:58.784Z,59.50
2017-09-14T16:21:26.653Z,62.00
2017-09-14T16:23:54.527Z,57.30
2017-09-14T16:26:22.582Z,60.90
2017-09-14T16:28:50.457Z,57.30
2017-09-14T16:31:18.216Z,58.70
2017-09-14T16:33:46.190Z,60.00
2017-09-14T16:36:14.159Z,62.40
2017-09-14T16:38:42.235Z,57.40
2017-09-14T16:41:10.206Z,58.20
2017-09-14T16:43:38.126Z,56.80
2017-09-14T16:46:06.027Z,58.40
2017-09-14T16:48:33.817Z,57.90
2017-09-14T16:51:01.674Z,58.30
2017-09-14T16:53:30.545Z,56.40
2017-09-14T16:55:58.512Z,55.10
2017-09-14T16:58:26.382Z,53.20
2017-09-14T17:00:54.353Z,55.20
2017-09-14T17:03:22.231Z,54.00
2017-09-14T17:05:50.389Z,57.10
2017-09-14T17:08:18.380Z,59.60
2017-09-14T17:10:46.328Z,62.00
2017-09-14T17:13:14.219Z,60.60
2017-09-14T17:15:42.286Z,61.50
2017-09-14T17:18:10.110Z,61.70
2017-09-14T17:20:38.026Z,62.70
2017-09-14T17:23:05.973Z,61.50
2017-09-14T17:25:33.861Z,62.30
2017-09-14T17:28:01.725Z,63.50
2017-09-14T17:30:29.541Z,63.10
2017-09-14T17:32:57.330Z,61.90
2017-09-14T17:35:25.217Z,64.60
2017-09-14T17:37:53.088Z,65.00
2017-09-14T17:40:20.958Z,64.30
2017-09-14T17:42:48.828Z,66.40
2017-09-14T17:45:16.801Z,62.30
2017-09-14T17:47:44.657Z,62.10
2017-09-14T17:50:12.448Z,61.90
2017-09-14T17:52:40.993Z,63.50
2017-09-14T17:55:08.912Z,63.30
2017-09-14T17:57:36.853Z,59.70
2017-09-14T18:00:04.796Z,60.00
2017-09-14T18:02:32.771Z,62.30
2017-09-14T18:05:00.727Z,63.10
2017-09-14T18:07:28.692Z,60.00
2017-09-14T18:09:56.791Z,59.20
2017-09-14T18:12:24.764Z,61.50
2017-09-14T18:14:52.808Z,61.80
2017-09-14T18:17:20.599Z,60.80
2017-09-14T18:19:48.455Z,61.40
2017-09-14T18:22:16.413Z,60.40
2017-09-14T18:24:45.399Z,60.50
2017-09-14T18:27:13.470Z,60.90
2017-09-14T18:29:41.362Z,61.20
2017-09-14T18:32:09.332Z,63.20
2017-09-14T18:34:37.876Z,59.90
2017-09-14T18:37:05.638Z,59.80
2017-09-14T18:39:33.613Z,62.50
2017-09-14T18:42:01.356Z,60.60
2017-09-14T18:44:29.245Z,61.50
2017-09-14T18:46:57.151Z,62.00
2017-09-14T18:49:25.082Z,61.80
2017-09-14T18:51:52.864Z,61.60
2017-09-14T18:54:20.731Z,61.70
2017-09-14T18:56:48.660Z,59.80
2017-09-14T18:59:16.655Z,60.90
2017-09-14T19:01:45.659Z,61.20
2017-09-14T19:04:13.961Z,61.40
2017-09-14T19:06:42.517Z,60.90
2017-09-14T19:09:10.478Z,60.90
2017-09-14T19:11:38.535Z,58.80
2017-09-14T19:14:06.628Z,59.40
2017-09-14T19:16:34.597Z,58.20
2017-09-14T19:19:02.478Z,58.70
2017-09-14T19:21:30.343Z,58.80
2017-09-14T19:23:58.232Z,61.00
2017-09-14T19:26:27.174Z,61.10
2017-09-14T19:28:55.785Z,61.20
2017-09-14T19:31:23.733Z,61.80
2017-09-14T19:33:51.613Z,62.60
2017-09-14T19:36:19.503Z,62.60
2017-09-14T19:38:48.060Z,65.00
2017-09-14T19:41:17.097Z,65.00
2017-09-14T19:43:44.959Z,63.90
2017-09-14T19:46:13.609Z,63.30
2017-09-14T19:48:42.294Z,63.30
2017-09-14T19:51:10.346Z,63.50
2017-09-14T19:53:38.210Z,61.20
2017-09-14T19:56:06.003Z,63.50
2017-09-14T19:58:34.058Z,63.50
2017-09-14T20:01:02.121Z,63.50
2017-09-14T20:03:30.526Z,63.80
2017-09-14T20:05:58.348Z,62.60
2017-09-14T20:08:26.254Z,65.20
2017-09-14T20:10:54.108Z,66.30
2017-09-14T20:13:22.064Z,67.30
2017-09-14T20:15:49.943Z,67.40
2017-09-14T20:18:18.000Z,68.30
2017-09-14T20:20:45.868Z,68.10
2017-09-14T20:23:13.863Z,69.30
2017-09-14T20:25:42.698Z,68.90
2017-09-14T20:28:10.603Z,67.90
2017-09-14T20:30:38.401Z,67.40
2017-09-14T20:33:07.029Z,67.90
2017-09-14T20:35:35.944Z,68.00
2017-09-14T20:38:04.922Z,67.40
2017-09-14T20:40:32.796Z,68.40
2017-09-14T20:43:00.757Z,68.50
2017-09-14T20:45:28.670Z,68.90
2017-09-14T20:47:57.351Z,68.30
2017-09-14T20:50:25.913Z,68.90
2017-09-14T20:52:53.684Z,68.20
2017-09-14T20:55:21.661Z,69.40
2017-09-14T20:57:50.244Z,68.80
2017-09-14T21:00:18.202Z,68.80
2017-09-14T21:02:45.985Z,69.30
2017-09-14T21:05:13.933Z,70.30
2017-09-14T21:07:41.988Z,70.60
2017-09-14T21:10:09.877Z,70.80
2017-09-14T21:12:37.719Z,71.90
2017-09-14T21:15:05.545Z,73.20
2017-09-14T21:17:34.295Z,74.10
2017-09-14T21:20:02.165Z,74.10
2017-09-14T21:22:30.132Z,70.60
2017-09-14T21:24:58.113Z,70.00
2017-09-14T21:27:26.083Z,69.90
2017-09-14T21:29:54.633Z,70.70
2017-09-14T21:32:23.431Z,69.80
2017-09-14T21:34:51.197Z,69.80
2017-09-14T21:37:19.060Z,70.00
2017-09-14T21:39:46.849Z,69.00
2017-09-14T21:42:14.593Z,70.10
2017-09-14T21:44:42.456Z,70.00
2017-09-14T21:47:10.338Z,68.00
2017-09-14T21:49:38.190Z,68.80
2017-09-14T21:52:05.950Z,69.30
2017-09-14T21:54:33.816Z,71.30
2017-09-14T21:57:01.582Z,69.60
2017-09-14T21:59:29.348Z,69.70
2017-09-14T22:01:57.212Z,68.50
2017-09-14T22:04:25.079Z,67.40
2017-09-14T22:06:53.665Z,69.60
2017-09-14T22:09:21.475Z,69.70
2017-09-14T22:11:50.115Z,67.90
2017-09-14T22:14:18.661Z,71.00
2017-09-14T22:16:46.563Z,70.20
2017-09-14T22:19:14.298Z,72.70
2017-09-14T22:21:42.176Z,73.50
2017-09-14T22:24:09.915Z,74.10
2017-09-14T22:26:37.824Z,74.00
2017-09-14T22:29:05.555Z,74.90
2017-09-14T22:31:33.541Z,74.70
2017-09-14T22:34:01.311Z,75.80
2017-09-14T22:36:29.079Z,74.90
2017-09-14T22:39:01.189Z,75.20
2017-09-14T22:41:29.841Z,72.60
2017-09-14T22:43:57.893Z,72.60
2017-09-14T22:46:26.294Z,72.50
2017-09-14T22:48:54.939Z,72.80
2017-09-14T22:51:22.883Z,73.40
2017-09-14T22:53:50.748Z,72.70
2017-09-14T22:56:19.292Z,71.30
2017-09-14T22:58:47.135Z,72.40
2017-09-14T23:01:15.021Z,69.80
2017-09-14T23:03:42.974Z,69.80
2017-09-14T23:06:10.853Z,69.60
2017-09-14T23:08:38.639Z,69.60
2017-09-14T23:11:06.996Z,69.80
2017-09-14T23:13:34.750Z,71.10
2017-09-14T23:16:02.523Z,72.20
2017-09-14T23:18:30.394Z,73.30
2017-09-14T23:20:58.348Z,73.90
2017-09-14T23:23:26.209Z,75.30
2017-09-14T23:25:53.960Z,75.50
2017-09-14T23:28:21.767Z,76.60
2017-09-14T23:30:49.726Z,75.90
2017-09-14T23:33:17.489Z,76.20
2017-09-14T23:35:45.243Z,76.40
2017-09-14T23:38:13.098Z,77.10
2017-09-14T23:40:40.943Z,77.80
2017-09-14T23:43:08.956Z,77.70
2017-09-14T23:45:36.928Z,78.40
2017-09-14T23:48:04.669Z,78.60
2017-09-14T23:50:32.550Z,78.60
2017-09-14T23:53:00.336Z,79.80
2017-09-14T23:55:28.908Z,79.60
2017-09-14T23:57:56.758Z,79.70
